Time;durP1;ratioP1;P1;durP2;ratioP2;P2;SDS_P1;SDS_P2;PMS_P1;PMS_P2;Temp;Humidity;BMP_temperature;BMP_pressure;BME280_temperature;BME280_humidity;BME280_pressure;Samples;Min_cycle;Max_cycle;Signal;HPM_P1;HPM_P2
2021/03/28 00:00:18;;;;;;;5.05;2.55;;;7.50;52.70;;;;;;5008317;28;20038;-63
2021/03/28 00:02:57;;;;;;;4.78;2.67;;;7.40;53.60;;;;;;5007584;28;20038;-64
2021/03/28 00:05:23;;;;;;;8.32;3.65;;;7.30;53.50;;;;;;5009496;28;20508;-63
2021/03/28 00:07:59;;;;;;;12.43;5.15;;;7.30;53.40;;;;;;5009290;28;20052;-63
2021/03/28 00:10:30;;;;;;;10.75;4.63;;;7.30;54.00;;;;;;5007162;28;20401;-63
2021/03/28 00:13:12;;;;;;;11.65;4.70;;;7.20;53.80;;;;;;5007064;28;20045;-63
2021/03/28 00:15:47;;;;;;;8.73;4.40;;;7.20;54.20;;;;;;5008996;28;20100;-63
2021/03/28 00:18:20;;;;;;;;;;;7.20;54.10;;;;;;5009437;28;20038;-63
2021/03/28 00:21:01;;;;;;;7.82;3.38;;;7.20;54.30;;;;;;5007032;28;19918;-63
2021/03/28 00:23:28;;;;;;;11.50;3.83;;;7.20;54.10;;;;;;5008914;28;20112;-63
2021/03/28 00:26:17;;;;;;;7.07;2.83;;;7.20;54.20;;;;;;5009543;28;20030;-63
2021/03/28 00:28:48;;;;;;;4.95;1.92;;;7.20;54.70;;;;;;5008195;28;20038;-64
2021/03/28 00:31:32;;;;;;;4.38;1.60;;;7.20;54.40;;;;;;5007969;28;20045;-63
2021/03/28 00:34:29;;;;;;;3.88;1.85;;;7.20;54.90;;;;;;5006155;28;20030;-63
2021/03/28 00:37:12;;;;;;;3.88;1.80;;;7.20;54.80;;;;;;5005862;28;20042;-63
2021/03/28 00:39:48;;;;;;;3.42;1.70;;;7.20;54.60;;;;;;5008795;28;20026;-63
2021/03/28 00:42:40;;;;;;;3.50;1.70;;;7.10;54.40;;;;;;5007932;28;20558;-63
2021/03/28 00:45:30;;;;;;;3.47;1.65;;;7.10;55.10;;;;;;5008429;28;20030;-63
2021/03/28 00:48:16;;;;;;;2.58;1.60;;;7.10;55.10;;;;;;5008908;28;20508;-63
2021/03/28 00:51:03;;;;;;;2.95;1.40;;;7.10;55.20;;;;;;5022673;28;20049;-63
2021/03/28 00:53:40;;;;;;;3.33;1.40;;;7.10;54.90;;;;;;5008849;28;20040;-63
2021/03/28 00:56:18;;;;;;;2.78;1.27;;;7.10;55.00;;;;;;5008195;28;20033;-63
2021/03/28 00:58:50;;;;;;;3.15;1.60;;;7.00;55.00;;;;;;5008448;28;20033;-63
2021/03/28 01:01:52;;;;;;;3.72;1.35;;;7.00;55.00;;;;;;5001782;28;20040;-63
2021/03/28 01:04:28;;;;;;;3.05;1.25;;;7.00;55.10;;;;;;5008318;28;20941;-63
2021/03/28 01:06:59;;;;;;;2.03;1.30;;;6.90;54.70;;;;;;5007732;28;20034;-63
2021/03/28 01:10:11;;;;;;;3.33;1.40;;;6.90;54.80;;;;;;5005779;28;20038;-63
2021/03/28 01:12:51;;;;;;;3.13;1.40;;;6.90;55.20;;;;;;4997910;28;20116;-63
2021/03/28 01:15:39;;;;;;;4.55;1.52;;;6.80;55.00;;;;;;4998496;28;20125;-63
2021/03/28 01:18:27;;;;;;;4.18;1.60;;;6.80;55.40;;;;;;5001350;28;20080;-63
2021/03/28 01:21:24;;;;;;;3.05;1.50;;;6.70;55.70;;;;;;5003180;28;20145;-62
2021/03/28 01:24:14;;;;;;;2.92;1.20;;;6.60;55.60;;;;;;4995020;28;20420;-63
2021/03/28 01:27:01;;;;;;;3.70;1.63;;;6.50;55.50;;;;;;5003542;28;20037;-63
2021/03/28 01:29:40;;;;;;;2.75;1.60;;;6.40;55.40;;;;;;5005675;28;20045;-63
2021/03/28 01:32:28;;;;;;;1.95;1.35;;;6.30;55.50;;;;;;5004898;28;20026;-63
2021/03/28 01:34:59;;;;;;;3.05;1.55;;;6.30;56.10;;;;;;5005007;28;20033;-63
2021/03/28 01:38:07;;;;;;;3.58;1.40;;;6.20;56.00;;;;;;5003151;28;20402;-63
2021/03/28 01:40:57;;;;;;;2.88;1.33;;;6.20;56.90;;;;;;5001952;28;20527;-62
2021/03/28 01:43:40;;;;;;;3.05;1.58;;;6.00;56.50;;;;;;5007457;28;20042;-63
2021/03/28 01:46:27;;;;;;;3.15;1.30;;;6.00;56.30;;;;;;5005127;28;20038;-63
2021/03/28 01:49:17;;;;;;;4.13;1.50;;;5.90;57.20;;;;;;5014470;28;20515;-63
2021/03/28 01:52:03;;;;;;;5.07;2.00;;;6.00;57.30;;;;;;5008043;28;20042;-63
2021/03/28 01:54:46;;;;;;;2.30;1.50;;;5.90;57.30;;;;;;5005431;28;20481;-63
2021/03/28 01:57:18;;;;;;;4.72;2.00;;;6.00;57.50;;;;;;5013024;28;20027;-63
2021/03/28 02:00:14;;;;;;;4.85;2.05;;;5.90;57.60;;;;;;5008097;28;20117;-63
2021/03/28 02:02:51;;;;;;;5.38;1.77;;;5.90;57.80;;;;;;5003328;28;20061;-63
2021/03/28 02:05:23;;;;;;;5.88;1.70;;;5.90;57.50;;;;;;5006325;28;20501;-63
2021/03/28 02:08:10;;;;;;;3.13;1.75;;;5.90;57.50;;;;;;5007264;28;20026;-63
2021/03/28 02:10:53;;;;;;;3.45;1.80;;;5.80;58.40;;;;;;5007700;28;20030;-62
2021/03/28 02:13:50;;;;;;;6.45;2.00;;;5.80;58.20;;;;;;5013192;28;20058;-63
2021/03/28 02:16:25;;;;;;;4.25;1.73;;;5.80;58.50;;;;;;5012466;28;20076;-63
2021/03/28 02:19:17;;;;;;;3.53;1.92;;;5.80;58.60;;;;;;5009451;28;20044;-63
2021/03/28 02:21:53;;;;;;;4.88;1.95;;;5.80;58.80;;;;;;5012623;28;20138;-63
2021/03/28 02:24:37;;;;;;;2.92;1.50;;;5.80;58.60;;;;;;5013246;28;20405;-63
2021/03/28 02:27:22;;;;;;;3.50;1.98;;;5.80;59.10;;;;;;5009416;28;20044;-63
2021/03/28 02:30:06;;;;;;;;;;;5.80;59.20;;;;;;5014092;28;20030;-63
2021/03/28 02:32:47;;;;;;;2.90;1.45;;;5.80;59.40;;;;;;5012745;28;19924;-63
2021/03/28 02:35:32;;;;;;;3.03;1.58;;;5.80;58.50;;;;;;5013560;28;20388;-63
2021/03/28 02:38:20;;;;;;;2.45;1.40;;;5.80;58.50;;;;;;5010764;28;20037;-62
2021/03/28 02:41:12;;;;;;;4.10;1.80;;;5.80;59.50;;;;;;5007790;28;20046;-62
2021/03/28 02:43:47;;;;;;;4.38;1.20;;;5.80;59.70;;;;;;5010673;28;20091;-63
2021/03/28 02:46:27;;;;;;;4.47;1.42;;;5.90;59.10;;;;;;5005310;28;20042;-63
2021/03/28 02:49:07;;;;;;;3.72;1.38;;;5.90;59.50;;;;;;5013167;28;20117;-63
2021/03/28 02:52:14;;;;;;;2.75;1.42;;;5.90;59.40;;;;;;5011241;28;20034;-63
2021/03/28 02:55:18;;;;;;;2.70;1.50;;;6.00;59.50;;;;;;4992680;28;20512;-63
2021/03/28 02:58:10;;;;;;;1.25;1.15;;;6.00;59.20;;;;;;5010698;28;20057;-63
2021/03/28 03:01:06;;;;;;;4.88;1.58;;;6.00;59.20;;;;;;5010270;28;20026;-62
2021/03/28 03:03:48;;;;;;;4.05;1.60;;;6.00;59.40;;;;;;5013615;28;20045;-63
2021/03/28 03:07:10;;;;;;;2.88;1.60;;;6.00;59.50;;;;;;5010990;28;20033;-63
2021/03/28 03:10:06;;;;;;;8.73;1.73;;;6.00;59.80;;;;;;4966621;28;20413;-63
2021/03/28 03:13:00;;;;;;;4.43;1.50;;;6.00;59.60;;;;;;5008011;28;20026;-63
2021/03/28 03:15:43;;;;;;;2.75;1.23;;;6.00;59.50;;;;;;5011073;28;20121;-63
2021/03/28 03:18:31;;;;;;;3.00;1.40;;;6.10;59.50;;;;;;5020632;28;20050;-63
2021/03/28 03:21:20;;;;;;;2.17;1.10;;;6.10;59.10;;;;;;5005422;28;20400;-63
2021/03/28 03:23:54;;;;;;;4.15;1.58;;;6.10;59.10;;;;;;5007889;28;20046;-63
2021/03/28 03:26:56;;;;;;;2.85;1.50;;;6.20;59.20;;;;;;5009865;28;20036;-63
2021/03/28 03:29:47;;;;;;;2.72;1.15;;;6.20;59.60;;;;;;5006974;28;20038;-63
2021/03/28 03:32:32;;;;;;;2.38;1.25;;;6.20;59.50;;;;;;5004126;28;20026;-63
2021/03/28 03:35:26;;;;;;;2.83;1.45;;;6.20;59.20;;;;;;5007881;28;20022;-63
2021/03/28 03:38:03;;;;;;;2.78;1.52;;;6.30;60.00;;;;;;5007260;28;20081;-63
2021/03/28 03:40:34;;;;;;;3.63;1.20;;;6.20;59.20;;;;;;5005018;28;20033;-62
2021/03/28 03:43:20;;;;;;;5.32;2.60;;;6.20;59.30;;;;;;5005058;28;20046;-63
2021/03/28 03:46:01;;;;;;;11.07;4.45;;;6.20;59.30;;;;;;4998805;28;20568;-63
2021/03/28 03:48:38;;;;;;;8.45;3.30;;;6.10;59.90;;;;;;5009012;28;20096;-63
2021/03/28 03:51:32;;;;;;;4.13;1.98;;;6.20;59.70;;;;;;5004854;28;20041;-63
2021/03/28 03:54:10;;;;;;;3.72;1.63;;;6.10;60.50;;;;;;5007798;28;20118;-63
2021/03/28 03:56:47;;;;;;;3.20;1.67;;;6.10;59.90;;;;;;5006134;28;20034;-63
2021/03/28 03:59:31;;;;;;;2.60;1.30;;;6.10;60.20;;;;;;5009063;28;20034;-63
2021/03/28 04:02:37;;;;;;;3.10;1.67;;;6.00;60.00;;;;;;5005914;28;20125;-63
2021/03/28 04:05:23;;;;;;;2.65;1.70;;;6.00;60.60;;;;;;4959252;28;20030;-63
2021/03/28 04:08:14;;;;;;;3.38;1.90;;;6.00;60.70;;;;;;5009148;28;20034;-63
2021/03/28 04:11:05;;;;;;;4.50;1.80;;;6.00;60.90;;;;;;4999752;28;20116;-62
2021/03/28 04:13:59;;;;;;;5.22;2.10;;;5.90;60.70;;;;;;5008686;28;20034;-63
2021/03/28 04:16:55;;;;;;;3.50;2.00;;;5.90;60.80;;;;;;5005760;28;20069;-64
2021/03/28 04:19:45;;;;;;;4.10;1.70;;;5.90;60.80;;;;;;5003282;28;20137;-63
2021/03/28 04:22:34;;;;;;;4.13;2.15;;;5.90;61.00;;;;;;5001418;28;20581;-63
2021/03/28 04:25:40;;;;;;;4.97;1.88;;;5.80;60.60;;;;;;5007563;28;20424;-63
2021/03/28 04:28:17;;;;;;;3.00;1.67;;;5.80;61.50;;;;;;5006362;28;20042;-64
2021/03/28 04:30:59;;;;;;;9.13;1.90;;;5.80;60.90;;;;;;5013179;28;20136;-62
2021/03/28 04:33:33;;;;;;;3.53;1.70;;;5.70;61.20;;;;;;5009416;28;20030;-63
2021/03/28 04:36:11;;;;;;;3.90;1.73;;;5.70;60.40;;;;;;5005124;28;20552;-63
2021/03/28 04:39:09;;;;;;;2.63;1.42;;;5.70;60.90;;;;;;5003659;28;20026;-63
2021/03/28 04:42:21;;;;;;;4.93;1.65;;;5.70;61.60;;;;;;5003782;28;20584;-63
2021/03/28 04:45:01;;;;;;;3.13;1.60;;;5.60;61.80;;;;;;5008333;28;20022;-62
2021/03/28 04:48:14;;;;;;;3.13;1.50;;;5.60;61.20;;;;;;5006923;28;20505;-63
2021/03/28 04:51:00;;;;;;;3.22;1.63;;;5.50;62.10;;;;;;5007287;28;20111;-63
2021/03/28 04:53:25;;;;;;;2.20;1.50;;;5.50;60.80;;;;;;5014089;28;20508;-62
2021/03/28 04:56:12;;;;;;;2.95;1.85;;;5.40;60.60;;;;;;5007832;28;20034;-63
2021/03/28 04:59:08;;;;;;;5.20;2.00;;;5.40;61.30;;;;;;5003750;28;20108;-62
2021/03/28 05:02:01;;;;;;;3.20;2.22;;;5.40;61.30;;;;;;5003825;28;20030;-63
2021/03/28 05:04:47;;;;;;;4.28;2.63;;;5.40;61.60;;;;;;5006914;28;20041;-63
2021/03/28 05:07:52;;;;;;;4.13;2.47;;;5.40;61.80;;;;;;5009048;28;20397;-63
2021/03/28 05:10:54;;;;;;;4.65;2.60;;;5.30;61.80;;;;;;4999659;28;20033;-62
2021/03/28 05:13:46;;;;;;;3.95;2.65;;;5.30;61.60;;;;;;5007862;28;20026;-63
2021/03/28 05:16:54;;;;;;;4.20;2.20;;;5.20;61.40;;;;;;5007153;28;20121;-63
2021/03/28 05:19:37;;;;;;;2.92;1.77;;;5.20;62.20;;;;;;5003066;28;20801;-63
2021/03/28 05:22:23;;;;;;;2.85;2.15;;;5.10;62.30;;;;;;5004202;28;20034;-63
2021/03/28 05:25:08;;;;;;;5.45;2.20;;;5.00;61.40;;;;;;5005997;28;20065;-63
2021/03/28 05:28:04;;;;;;;4.57;2.15;;;4.90;61.60;;;;;;5003488;28;20030;-62
2021/03/28 05:30:48;;;;;;;3.13;1.73;;;4.90;62.70;;;;;;5003436;28;20920;-62
2021/03/28 05:33:22;;;;;;;3.25;1.80;;;4.90;61.80;;;;;;4999712;28;20025;-63
2021/03/28 05:36:15;;;;;;;5.85;1.90;;;4.90;63.50;;;;;;4998731;28;20108;-62
2021/03/28 05:39:16;;;;;;;3.55;1.98;;;4.90;62.80;;;;;;5001974;28;20126;-63
2021/03/28 05:41:59;;;;;;;3.85;1.83;;;4.80;63.60;;;;;;5002176;28;20029;-63
2021/03/28 05:44:53;;;;;;;5.35;2.03;;;4.80;63.20;;;;;;5016203;28;20437;-63
2021/03/28 05:47:46;;;;;;;12.50;6.25;;;4.80;63.10;;;;;;4994766;28;20499;-62
2021/03/28 05:50:30;;;;;;;11.05;4.78;;;4.80;63.40;;;;;;5005951;28;20037;-63
2021/03/28 05:53:17;;;;;;;9.00;4.53;;;4.80;63.70;;;;;;4998256;28;20122;-62
2021/03/28 05:56:23;;;;;;;23.98;10.50;;;4.80;63.30;;;;;;4994206;28;20030;-63
2021/03/28 05:58:57;;;;;;;;;;;4.80;64.40;;;;;;4999208;28;20030;-63
2021/03/28 06:01:57;;;;;;;21.02;10.48;;;4.90;64.20;;;;;;4995270;28;19921;-62
2021/03/28 06:04:44;;;;;;;14.05;7.32;;;4.90;63.70;;;;;;5013761;28;20030;-63
2021/03/28 06:07:53;;;;;;;9.93;5.03;;;4.90;64.40;;;;;;4998387;28;20038;-63
2021/03/28 06:10:31;;;;;;;4.88;2.70;;;4.90;64.90;;;;;;4999712;28;20049;-63
2021/03/28 06:13:23;;;;;;;4.43;2.63;;;4.90;64.10;;;;;;5002092;28;20022;-63
2021/03/28 06:16:08;;;;;;;6.53;2.17;;;4.90;64.40;;;;;;4999135;28;20042;-63
2021/03/28 06:18:56;;;;;;;3.92;2.53;;;5.00;63.70;;;;;;5000801;28;20034;-63
2021/03/28 06:21:56;;;;;;;5.80;2.97;;;5.00;64.30;;;;;;4996779;28;20057;-62
2021/03/28 06:24:52;;;;;;;5.22;3.33;;;5.10;64.50;;;;;;4998055;28;20065;-63
2021/03/28 06:27:58;;;;;;;4.85;3.22;;;5.10;64.40;;;;;;4980838;28;20664;-63
2021/03/28 06:30:26;;;;;;;;;;;5.20;64.40;;;;;;4985278;28;20111;-63
2021/03/28 06:33:22;;;;;;;4.43;2.25;;;5.30;63.90;;;;;;4987854;28;19944;-62
2021/03/28 06:36:15;;;;;;;5.15;2.30;;;5.30;63.20;;;;;;4989692;28;20041;-63
2021/03/28 06:39:18;;;;;;;5.40;2.70;;;5.40;63.90;;;;;;5002093;28;20049;-63
2021/03/28 06:42:13;;;;;;;5.55;2.50;;;5.40;64.00;;;;;;4986603;28;20037;-63
2021/03/28 06:45:13;;;;;;;4.75;2.40;;;5.50;63.80;;;;;;4986683;28;20088;-63
2021/03/28 06:48:16;;;;;;;3.95;2.40;;;5.50;64.60;;;;;;4980456;28;20045;-63
2021/03/28 06:51:03;;;;;;;3.65;2.25;;;5.60;64.00;;;;;;4987500;28;20037;-64
2021/03/28 06:53:35;;;;;;;3.38;2.30;;;5.70;63.50;;;;;;4989488;28;20084;-63
2021/03/28 06:56:38;;;;;;;5.18;2.72;;;5.70;63.70;;;;;;4987404;28;20053;-62
2021/03/28 06:59:20;;;;;;;5.97;2.65;;;5.80;64.30;;;;;;4991203;28;20030;-63
2021/03/28 07:02:03;;;;;;;6.45;2.85;;;5.90;63.60;;;;;;4990654;28;20254;-63
2021/03/28 07:04:34;;;;;;;3.78;2.45;;;5.90;64.10;;;;;;4998517;28;20440;-64
2021/03/28 07:07:24;;;;;;;3.65;2.20;;;6.00;63.50;;;;;;4988166;28;20065;-63
2021/03/28 07:10:41;;;;;;;3.72;2.60;;;6.10;64.00;;;;;;4990921;28;20060;-63
2021/03/28 07:13:44;;;;;;;5.93;2.50;;;6.20;64.10;;;;;;4994727;28;20050;-63
2021/03/28 07:16:29;;;;;;;4.28;2.60;;;6.20;64.20;;;;;;4994259;28;20031;-63
2021/03/28 07:19:18;;;;;;;4.57;2.20;;;6.30;64.20;;;;;;4993852;28;20069;-63
2021/03/28 07:22:01;;;;;;;3.97;2.22;;;6.40;64.10;;;;;;5001901;28;20054;-63
2021/03/28 07:24:54;;;;;;;5.10;2.28;;;6.50;64.00;;;;;;5006818;28;20037;-64
2021/03/28 07:27:26;;;;;;;3.40;2.08;;;6.60;63.70;;;;;;5003774;28;20034;-63
2021/03/28 07:30:15;;;;;;;4.85;2.40;;;6.70;63.70;;;;;;5007183;28;20033;-64
2021/03/28 07:33:11;;;;;;;6.05;3.13;;;6.80;63.60;;;;;;5005175;28;20120;-63
2021/03/28 07:36:21;;;;;;;5.07;2.40;;;6.90;64.00;;;;;;5007146;28;20030;-64
2021/03/28 07:39:03;;;;;;;3.75;2.53;;;7.00;63.80;;;;;;4940338;28;20232;-64
2021/03/28 07:41:56;;;;;;;5.22;1.92;;;7.10;63.20;;;;;;4940557;28;20051;-63
2021/03/28 07:45:08;;;;;;;4.97;2.42;;;7.20;63.10;;;;;;4993832;28;20401;-63
2021/03/28 07:48:15;;;;;;;5.78;2.58;;;7.30;62.60;;;;;;5008072;28;20496;-64
2021/03/28 07:51:37;;;;;;;3.70;2.17;;;7.50;62.60;;;;;;5003851;28;20165;-63
2021/03/28 07:54:26;;;;;;;4.32;2.08;;;7.60;62.50;;;;;;5006020;28;20025;-64
2021/03/28 07:57:10;;;;;;;6.22;2.25;;;7.70;61.80;;;;;;5003435;28;20538;-64
2021/03/28 07:59:50;;;;;;;4.57;2.30;;;7.80;61.40;;;;;;5005435;28;20041;-64
2021/03/28 08:02:39;;;;;;;4.05;1.83;;;7.90;61.50;;;;;;5004366;28;20535;-64
2021/03/28 08:05:29;;;;;;;4.68;2.08;;;8.10;61.20;;;;;;4998112;28;20044;-64
2021/03/28 08:08:25;;;;;;;5.07;2.10;;;8.20;60.80;;;;;;5001716;28;20424;-63
2021/03/28 08:11:11;;;;;;;7.50;2.80;;;8.30;60.60;;;;;;4972383;28;20041;-64
2021/03/28 08:13:49;;;;;;;6.65;3.30;;;8.50;60.60;;;;;;5002171;28;20037;-63
2021/03/28 08:16:31;;;;;;;4.22;2.15;;;8.70;60.30;;;;;;5004583;28;20052;-64
2021/03/28 08:19:24;;;;;;;3.50;1.40;;;8.80;59.90;;;;;;5004328;28;20026;-64
2021/03/28 08:22:07;;;;;;;5.90;1.70;;;9.00;59.60;;;;;;5005811;28;20030;-64
2021/03/28 08:25:03;;;;;;;6.07;1.60;;;9.10;59.10;;;;;;5005706;28;20494;-64
2021/03/28 08:27:47;;;;;;;4.13;1.30;;;9.30;58.70;;;;;;5005790;28;20484;-64
2021/03/28 08:30:35;;;;;;;3.17;1.13;;;9.50;58.20;;;;;;5006145;28;20061;-64
2021/03/28 08:33:10;;;;;;;2.97;0.85;;;9.60;57.90;;;;;;5007092;28;20111;-64
2021/03/28 08:35:53;;;;;;;3.72;1.50;;;9.70;57.70;;;;;;5005601;28;20127;-64
2021/03/28 08:38:56;;;;;;;1.67;0.80;;;9.90;57.10;;;;;;5007169;28;20026;-64
2021/03/28 08:41:47;;;;;;;3.30;1.38;;;10.00;56.90;;;;;;5004832;28;20529;-64
2021/03/28 08:44:50;;;;;;;4.88;1.10;;;10.10;55.90;;;;;;5006655;28;20059;-64
2021/03/28 08:47:54;;;;;;;5.07;1.40;;;10.20;55.80;;;;;;4999711;28;20022;-64
2021/03/28 08:50:41;;;;;;;4.15;1.25;;;10.30;55.50;;;;;;4998282;28;20063;-64
2021/03/28 08:53:36;;;;;;;3.45;0.80;;;10.40;55.40;;;;;;5005031;28;20065;-64
2021/03/28 08:56:22;;;;;;;5.60;0.85;;;10.40;54.70;;;;;;5004647;28;20034;-64
2021/03/28 08:58:54;;;;;;;3.58;0.85;;;10.50;54.50;;;;;;5004792;28;20061;-64
2021/03/28 09:01:48;;;;;;;3.72;1.05;;;10.50;54.20;;;;;;5006024;28;20398;-64
2021/03/28 09:04:32;;;;;;;2.97;0.67;;;10.60;53.90;;;;;;5006426;28;20099;-64
2021/03/28 09:07:06;;;;;;;7.40;2.05;;;10.70;54.20;;;;;;5008350;28;20064;-63
2021/03/28 09:09:44;;;;;;;5.72;1.13;;;10.70;54.00;;;;;;5006575;28;20109;-64
2021/03/28 09:12:43;;;;;;;4.95;1.67;;;10.80;53.50;;;;;;5000248;28;20030;-64
2021/03/28 09:15:39;;;;;;;6.18;1.23;;;10.90;53.00;;;;;;5008366;28;20037;-64
2021/03/28 09:18:25;;;;;;;2.63;0.85;;;11.00;52.20;;;;;;5006703;28;20030;-64
2021/03/28 09:21:30;;;;;;;7.70;1.20;;;11.20;52.70;;;;;;5021819;28;20588;-64
2021/03/28 09:24:06;;;;;;;3.40;1.20;;;11.20;51.70;;;;;;5007675;28;20110;-65
2021/03/28 09:26:57;;;;;;;3.63;1.25;;;11.30;52.00;;;;;;5006086;28;20112;-63
2021/03/28 09:29:44;;;;;;;2.88;1.15;;;11.50;51.80;;;;;;5008014;28;20033;-64
2021/03/28 09:32:24;;;;;;;2.97;0.90;;;11.50;51.70;;;;;;5008253;28;20041;-64
2021/03/28 09:35:20;;;;;;;4.93;1.25;;;11.50;51.40;;;;;;5007549;28;20026;-64
2021/03/28 09:38:16;;;;;;;2.72;1.02;;;11.60;51.10;;;;;;5008153;28;20397;-64
2021/03/28 09:40:58;;;;;;;3.95;1.40;;;11.70;50.80;;;;;;5007756;28;20046;-64
2021/03/28 09:43:29;;;;;;;5.07;1.50;;;11.70;51.20;;;;;;5007343;28;20058;-64
2021/03/28 09:46:09;;;;;;;3.40;1.20;;;11.70;51.50;;;;;;5008012;28;20092;-64
2021/03/28 09:48:43;;;;;;;2.65;1.10;;;11.80;51.60;;;;;;5007140;28;20033;-64
2021/03/28 09:51:28;;;;;;;3.70;1.08;;;11.90;51.20;;;;;;5005418;28;20041;-64
2021/03/28 09:54:14;;;;;;;4.28;1.20;;;11.90;50.80;;;;;;5005705;28;20530;-65
2021/03/28 09:57:05;;;;;;;4.15;1.33;;;12.00;49.40;;;;;;5006874;28;20124;-64
2021/03/28 10:00:12;;;;;;;4.05;1.30;;;12.00;49.30;;;;;;4998525;28;20037;-64
2021/03/28 10:02:56;;;;;;;4.45;1.48;;;12.10;49.40;;;;;;5007181;28;20042;-64
2021/03/28 10:05:32;;;;;;;3.42;0.98;;;12.20;49.30;;;;;;5007055;28;20030;-64
2021/03/28 10:08:13;;;;;;;3.45;1.02;;;12.20;49.30;;;;;;5022302;28;21638;-64
2021/03/28 10:11:02;;;;;;;5.15;1.05;;;12.30;48.70;;;;;;5002976;28;20030;-64
2021/03/28 10:14:08;;;;;;;4.90;1.20;;;12.40;49.10;;;;;;5007616;28;20502;-64
2021/03/28 10:16:46;;;;;;;2.15;0.80;;;12.40;48.10;;;;;;5007248;28;20030;-64
2021/03/28 10:19:21;;;;;;;4.43;0.85;;;12.40;48.70;;;;;;5007699;28;20034;-64
2021/03/28 10:22:01;;;;;;;2.70;0.98;;;12.50;48.50;;;;;;5007584;28;20497;-64
2021/03/28 10:24:44;;;;;;;3.50;0.82;;;12.50;47.50;;;;;;5006840;28;20447;-64
2021/03/28 10:27:29;;;;;;;2.17;0.80;;;12.50;48.10;;;;;;5005914;28;20089;-64
2021/03/28 10:30:29;;;;;;;4.75;1.17;;;12.50;47.90;;;;;;5010650;28;20062;-64
2021/03/28 10:33:36;;;;;;;3.72;0.80;;;12.60;47.60;;;;;;5005685;28;20057;-64
2021/03/28 10:36:44;;;;;;;3.00;1.00;;;12.70;47.60;;;;;;5001996;28;20026;-64
2021/03/28 10:39:38;;;;;;;2.25;0.82;;;12.70;47.80;;;;;;5010846;28;20524;-64
2021/03/28 10:42:09;;;;;;;7.57;1.10;;;12.80;47.20;;;;;;5010892;28;20045;-64
2021/03/28 10:44:55;;;;;;;4.20;0.98;;;12.90;47.80;;;;;;5009641;28;20041;-64
2021/03/28 10:47:40;;;;;;;2.35;0.90;;;13.00;48.00;;;;;;5009596;28;20508;-64
2021/03/28 10:50:46;;;;;;;3.92;1.20;;;13.00;47.10;;;;;;5009525;28;20385;-64
2021/03/28 10:53:42;;;;;;;2.33;0.82;;;13.10;46.80;;;;;;5010895;28;20381;-64
2021/03/28 10:56:44;;;;;;;4.40;1.10;;;13.10;46.40;;;;;;4999081;28;20037;-64
2021/03/28 10:59:26;;;;;;;2.38;0.90;;;13.10;46.50;;;;;;4999111;28;20034;-64
2021/03/28 11:02:00;;;;;;;2.28;0.98;;;13.10;47.00;;;;;;5004903;28;20030;-64
2021/03/28 11:04:31;;;;;;;3.08;1.40;;;13.20;47.20;;;;;;4999801;28;20042;-64
2021/03/28 11:07:22;;;;;;;2.45;1.25;;;13.20;47.30;;;;;;5004015;28;20029;-64
2021/03/28 11:10:25;;;;;;;3.88;1.10;;;13.30;46.40;;;;;;5003251;28;20034;-64
2021/03/28 11:13:28;;;;;;;5.03;1.30;;;13.30;46.60;;;;;;5002210;28;20084;-64
2021/03/28 11:16:01;;;;;;;2.17;1.20;;;13.40;46.60;;;;;;5002751;28;20030;-65
2021/03/28 11:18:47;;;;;;;3.50;1.20;;;13.40;47.30;;;;;;5004849;28;20038;-64
2021/03/28 11:21:51;;;;;;;3.20;1.35;;;13.50;46.90;;;;;;5000887;28;20075;-65
2021/03/28 11:24:54;;;;;;;1.95;1.25;;;13.60;47.00;;;;;;4999160;28;20165;-64
2021/03/28 11:27:31;;;;;;;3.42;1.33;;;13.70;46.70;;;;;;5005112;28;20048;-64
2021/03/28 11:30:37;;;;;;;3.45;1.10;;;13.80;47.20;;;;;;4994983;28;20448;-64
2021/03/28 11:33:18;;;;;;;2.88;1.25;;;13.80;45.90;;;;;;5006803;28;20038;-64
2021/03/28 11:35:46;;;;;;;2.00;0.95;;;13.90;46.20;;;;;;5001913;28;20069;-64
2021/03/28 11:38:18;;;;;;;4.32;1.20;;;13.90;46.40;;;;;;5006694;28;20042;-64
2021/03/28 11:41:18;;;;;;;3.58;1.20;;;14.00;45.90;;;;;;5002068;28;20129;-64
2021/03/28 11:43:52;;;;;;;3.58;1.00;;;14.00;45.60;;;;;;5005166;28;20038;-64
2021/03/28 11:46:27;;;;;;;4.15;1.15;;;14.10;45.90;;;;;;5000148;28;20390;-64
2021/03/28 11:48:53;;;;;;;;;;;14.10;45.20;;;;;;5002731;28;20092;-64
2021/03/28 11:51:24;;;;;;;6.28;2.78;;;14.10;42.60;;;;;;5003019;28;19914;-64
2021/03/28 11:54:04;;;;;;;2.90;1.40;;;14.10;45.00;;;;;;5006325;28;20294;-64
2021/03/28 11:56:45;;;;;;;3.85;1.13;;;14.10;45.00;;;;;;5009996;28;20030;-64
2021/03/28 11:59:22;;;;;;;3.13;1.55;;;14.20;45.30;;;;;;5009510;28;20037;-64
2021/03/28 12:02:03;;;;;;;4.13;1.30;;;14.20;44.80;;;;;;5004819;28;20523;-64
2021/03/28 12:04:41;;;;;;;2.78;1.40;;;14.30;43.70;;;;;;5008451;28;20519;-64
2021/03/28 12:07:39;;;;;;;3.10;1.00;;;14.30;44.40;;;;;;5005984;28;20030;-65
2021/03/28 12:10:07;;;;;;;5.63;2.90;;;14.30;43.00;;;;;;5008280;28;20035;-64
2021/03/28 12:12:44;;;;;;;2.50;1.20;;;14.40;44.40;;;;;;5005694;28;20033;-65
2021/03/28 12:15:44;;;;;;;2.45;0.80;;;14.40;42.50;;;;;;5009831;28;20521;-64
2021/03/28 12:18:33;;;;;;;3.80;1.20;;;14.40;42.70;;;;;;5007329;28;20128;-64
2021/03/28 12:21:04;;;;;;;3.40;1.20;;;14.40;43.40;;;;;;5007296;28;20030;-65
2021/03/28 12:23:38;;;;;;;3.33;1.92;;;14.50;44.60;;;;;;5009707;28;20409;-65
2021/03/28 12:26:22;;;;;;;4.82;3.05;;;14.50;44.50;;;;;;5008972;28;20329;-64
2021/03/28 12:28:57;;;;;;;2.13;1.58;;;14.60;44.10;;;;;;5008162;28;20504;-65
2021/03/28 12:31:32;;;;;;;2.22;0.85;;;14.70;43.20;;;;;;5008424;28;20042;-64
2021/03/28 12:34:27;;;;;;;3.63;1.60;;;14.80;42.60;;;;;;5006298;28;20026;-65
2021/03/28 12:37:07;;;;;;;1.98;0.98;;;14.90;43.00;;;;;;5023144;28;20034;-64
2021/03/28 12:40:06;;;;;;;1.90;1.23;;;14.90;42.60;;;;;;5009450;28;20034;-65
2021/03/28 12:42:34;;;;;;;2.40;0.90;;;14.90;41.70;;;;;;4998857;28;20030;-64
2021/03/28 12:45:06;;;;;;;3.47;1.20;;;15.00;43.00;;;;;;5009335;28;20476;-64
2021/03/28 12:47:37;;;;;;;2.63;0.95;;;15.10;42.90;;;;;;5008342;28;20354;-65
2021/03/28 12:50:15;;;;;;;2.15;1.05;;;15.10;43.00;;;;;;5008407;28;20050;-64
2021/03/28 12:52:49;;;;;;;3.90;1.05;;;15.10;42.00;;;;;;5006008;28;21347;-64
2021/03/28 12:55:35;;;;;;;2.15;1.00;;;15.20;42.00;;;;;;5007665;28;20406;-64
2021/03/28 12:58:09;;;;;;;3.75;1.30;;;15.20;42.20;;;;;;5008480;28;20018;-65
2021/03/28 13:00:37;;;;;;;1.48;0.90;;;15.20;42.30;;;;;;5007661;28;20072;-64
2021/03/28 13:03:11;;;;;;;3.58;1.20;;;15.20;43.10;;;;;;5006380;28;20546;-64
2021/03/28 13:05:51;;;;;;;4.40;1.33;;;15.30;42.60;;;;;;5007730;28;20049;-64
2021/03/28 13:08:20;;;;;;;4.30;1.48;;;15.30;42.80;;;;;;5007078;28;20685;-65
2021/03/28 13:10:46;;;;;;;4.97;2.60;;;15.40;43.20;;;;;;5004289;28;20042;-64
2021/03/28 13:13:24;;;;;;;3.30;1.30;;;15.40;43.00;;;;;;5008114;28;20026;-65
2021/03/28 13:16:00;;;;;;;3.20;1.38;;;15.40;42.30;;;;;;5008555;28;20049;-65
2021/03/28 13:18:41;;;;;;;3.70;1.25;;;15.50;41.80;;;;;;5004008;28;20621;-65
2021/03/28 13:21:28;;;;;;;2.80;1.13;;;15.50;42.40;;;;;;5007281;28;20404;-65
2021/03/28 13:24:08;;;;;;;2.70;1.13;;;15.60;41.80;;;;;;5006606;28;20037;-64
2021/03/28 13:26:38;;;;;;;2.17;1.70;;;15.60;41.50;;;;;;5007900;28;20030;-65
2021/03/28 13:29:39;;;;;;;4.00;1.30;;;15.70;41.40;;;;;;5008809;28;20053;-64
2021/03/28 13:32:20;;;;;;;2.42;1.15;;;15.70;41.00;;;;;;5005751;28;20129;-64
2021/03/28 13:34:46;;;;;;;3.40;1.60;;;15.70;41.40;;;;;;5005829;28;20396;-65
2021/03/28 13:37:39;;;;;;;3.72;1.83;;;15.80;41.10;;;;;;5006087;28;20030;-65
2021/03/28 13:40:23;;;;;;;2.40;1.13;;;15.80;40.50;;;;;;5005145;28;20031;-65
2021/03/28 13:42:58;;;;;;;3.13;1.10;;;15.80;40.90;;;;;;5005636;28;20046;-64
2021/03/28 13:45:47;;;;;;;2.35;1.17;;;15.80;41.40;;;;;;5008381;28;20042;-65
2021/03/28 13:48:17;;;;;;;2.67;1.08;;;15.80;41.70;;;;;;5006173;28;20516;-65
2021/03/28 13:51:14;;;;;;;3.97;1.17;;;15.90;41.30;;;;;;5006875;28;20038;-64
2021/03/28 13:53:48;;;;;;;8.32;1.17;;;16.00;40.70;;;;;;4997032;28;20041;-64
2021/03/28 13:56:41;;;;;;;1.52;1.00;;;16.00;41.30;;;;;;5008144;28;20257;-64
2021/03/28 13:59:15;;;;;;;1.52;0.95;;;16.00;40.50;;;;;;5006846;28;20408;-64
2021/03/28 14:01:43;;;;;;;1.30;0.95;;;16.10;40.80;;;;;;5006880;28;20065;-65
2021/03/28 14:04:44;;;;;;;2.63;1.10;;;16.10;41.00;;;;;;5004514;28;20034;-65
2021/03/28 14:07:35;;;;;;;1.90;1.20;;;16.10;40.50;;;;;;5006526;28;20030;-65
2021/03/28 14:10:06;;;;;;;2.25;0.90;;;16.10;40.00;;;;;;5005466;28;20334;-65
2021/03/28 14:12:54;;;;;;;1.55;0.80;;;16.20;40.80;;;;;;5003480;28;20030;-65
2021/03/28 14:15:55;;;;;;;1.95;1.00;;;16.20;40.10;;;;;;5006486;28;20485;-65
2021/03/28 14:18:28;;;;;;;3.97;1.08;;;16.30;39.80;;;;;;5006881;28;20026;-64
2021/03/28 14:21:21;;;;;;;2.50;0.82;;;16.30;39.90;;;;;;5008009;28;20456;-65
2021/03/28 14:23:56;;;;;;;3.03;1.00;;;16.40;39.70;;;;;;5004672;28;20037;-65
2021/03/28 14:26:40;;;;;;;1.65;1.10;;;16.40;40.30;;;;;;5004081;28;20037;-64
2021/03/28 14:29:24;;;;;;;2.40;1.05;;;16.40;40.50;;;;;;5007830;28;20025;-64
2021/03/28 14:32:15;;;;;;;3.40;1.15;;;16.40;40.20;;;;;;5005567;28;20034;-65